sensor_id;sensor_type;location;lat;lon;timestamp;temperature;humidity
36990;DHT22;22898;52.102;5.776;2023-07-13T00:02:07;26.10;88.60
36990;DHT22;22898;52.102;5.776;2023-07-13T00:04:33;26.00;88.90
36990;DHT22;22898;52.102;5.776;2023-07-13T00:06:59;26.00;89.00
36990;DHT22;22898;52.102;5.776;2023-07-13T00:09:24;26.00;89.10
36990;DHT22;22898;52.102;5.776;2023-07-13T00:11:53;26.00;89.00
36990;DHT22;22898;52.102;5.776;2023-07-13T00:14:19;25.90;89.40
36990;DHT22;22898;52.102;5.776;2023-07-13T00:16:45;25.90;89.20
36990;DHT22;22898;52.102;5.776;2023-07-13T00:19:11;25.90;89.40
36990;DHT22;22898;52.102;5.776;2023-07-13T00:21:38;25.90;89.70
36990;DHT22;22898;52.102;5.776;2023-07-13T00:24:05;25.90;89.50
36990;DHT22;22898;52.102;5.776;2023-07-13T00:26:31;25.90;89.50
36990;DHT22;22898;52.102;5.776;2023-07-13T00:28:58;25.80;89.60
36990;DHT22;22898;52.102;5.776;2023-07-13T00:31:24;25.90;89.10
36990;DHT22;22898;52.102;5.776;2023-07-13T00:33:49;25.80;90.00
36990;DHT22;22898;52.102;5.776;2023-07-13T00:36:15;25.80;89.10
36990;DHT22;22898;52.102;5.776;2023-07-13T00:38:41;25.70;89.30
36990;DHT22;22898;52.102;5.776;2023-07-13T00:41:06;25.60;89.90
36990;DHT22;22898;52.102;5.776;2023-07-13T00:43:32;25.60;90.00
36990;DHT22;22898;52.102;5.776;2023-07-13T00:46:14;25.60;89.90
36990;DHT22;22898;52.102;5.776;2023-07-13T00:48:40;25.50;89.90
36990;DHT22;22898;52.102;5.776;2023-07-13T00:51:06;25.50;90.30
36990;DHT22;22898;52.102;5.776;2023-07-13T00:53:32;25.50;89.80
36990;DHT22;22898;52.102;5.776;2023-07-13T00:55:59;25.50;89.90
36990;DHT22;22898;52.102;5.776;2023-07-13T00:58:27;25.50;90.00
36990;DHT22;22898;52.102;5.776;2023-07-13T01:00:53;25.40;90.00
36990;DHT22;22898;52.102;5.776;2023-07-13T01:03:19;25.30;90.00
36990;DHT22;22898;52.102;5.776;2023-07-13T01:05:47;25.20;90.20
36990;DHT22;22898;52.102;5.776;2023-07-13T01:08:14;25.20;90.10
36990;DHT22;22898;52.102;5.776;2023-07-13T01:10:39;25.30;90.00
36990;DHT22;22898;52.102;5.776;2023-07-13T01:13:07;25.20;90.20
36990;DHT22;22898;52.102;5.776;2023-07-13T01:15:38;25.20;90.30
36990;DHT22;22898;52.102;5.776;2023-07-13T01:18:10;25.20;90.10
36990;DHT22;22898;52.102;5.776;2023-07-13T01:20:37;25.10;90.30
36990;DHT22;22898;52.102;5.776;2023-07-13T01:23:08;25.10;90.40
36990;DHT22;22898;52.102;5.776;2023-07-13T01:25:35;25.10;90.30
36990;DHT22;22898;52.102;5.776;2023-07-13T01:28:02;25.10;90.10
36990;DHT22;22898;52.102;5.776;2023-07-13T01:30:28;25.00;90.30
36990;DHT22;22898;52.102;5.776;2023-07-13T01:32:54;25.00;90.40
36990;DHT22;22898;52.102;5.776;2023-07-13T01:35:20;25.00;90.30
36990;DHT22;22898;52.102;5.776;2023-07-13T01:37:45;24.90;90.40
36990;DHT22;22898;52.102;5.776;2023-07-13T01:40:12;24.90;90.50
36990;DHT22;22898;52.102;5.776;2023-07-13T01:42:38;24.90;90.40
36990;DHT22;22898;52.102;5.776;2023-07-13T01:45:04;24.90;90.50
36990;DHT22;22898;52.102;5.776;2023-07-13T01:47:30;24.80;90.60
36990;DHT22;22898;52.102;5.776;2023-07-13T01:49:56;24.60;90.70
36990;DHT22;22898;52.102;5.776;2023-07-13T01:52:22;24.60;90.90
36990;DHT22;22898;52.102;5.776;2023-07-13T01:54:48;24.60;90.90
36990;DHT22;22898;52.102;5.776;2023-07-13T01:57:14;24.50;90.90
36990;DHT22;22898;52.102;5.776;2023-07-13T01:59:39;24.30;91.30
36990;DHT22;22898;52.102;5.776;2023-07-13T02:02:05;24.10;91.60
36990;DHT22;22898;52.102;5.776;2023-07-13T02:04:30;24.00;91.70
36990;DHT22;22898;52.102;5.776;2023-07-13T02:06:56;23.90;91.90
36990;DHT22;22898;52.102;5.776;2023-07-13T02:09:22;24.00;92.00
36990;DHT22;22898;52.102;5.776;2023-07-13T02:11:47;24.00;91.70
36990;DHT22;22898;52.102;5.776;2023-07-13T02:14:14;23.90;92.00
36990;DHT22;22898;52.102;5.776;2023-07-13T02:16:41;23.90;91.90
36990;DHT22;22898;52.102;5.776;2023-07-13T02:19:07;23.90;92.10
36990;DHT22;22898;52.102;5.776;2023-07-13T02:21:32;24.00;92.10
36990;DHT22;22898;52.102;5.776;2023-07-13T02:23:58;24.00;92.00
36990;DHT22;22898;52.102;5.776;2023-07-13T02:26:25;24.10;91.90
36990;DHT22;22898;52.102;5.776;2023-07-13T02:28:51;24.10;91.80
36990;DHT22;22898;52.102;5.776;2023-07-13T02:31:16;23.80;92.10
36990;DHT22;22898;52.102;5.776;2023-07-13T02:33:42;23.70;92.60
36990;DHT22;22898;52.102;5.776;2023-07-13T02:36:09;23.60;92.50
36990;DHT22;22898;52.102;5.776;2023-07-13T02:38:35;23.70;92.70
36990;DHT22;22898;52.102;5.776;2023-07-13T02:41:03;23.70;92.60
36990;DHT22;22898;52.102;5.776;2023-07-13T02:43:29;23.70;92.60
36990;DHT22;22898;52.102;5.776;2023-07-13T02:45:55;23.70;92.70
36990;DHT22;22898;52.102;5.776;2023-07-13T02:48:21;23.70;92.90
36990;DHT22;22898;52.102;5.776;2023-07-13T02:50:46;23.60;92.80
36990;DHT22;22898;52.102;5.776;2023-07-13T02:53:12;23.70;92.80
36990;DHT22;22898;52.102;5.776;2023-07-13T02:55:37;23.70;92.70
36990;DHT22;22898;52.102;5.776;2023-07-13T02:58:03;23.50;92.90
36990;DHT22;22898;52.102;5.776;2023-07-13T03:00:29;23.50;93.10
36990;DHT22;22898;52.102;5.776;2023-07-13T03:02:55;23.50;93.10
36990;DHT22;22898;52.102;5.776;2023-07-13T03:05:23;23.40;93.30
36990;DHT22;22898;52.102;5.776;2023-07-13T03:07:49;23.60;93.10
36990;DHT22;22898;52.102;5.776;2023-07-13T03:10:15;23.60;93.20
36990;DHT22;22898;52.102;5.776;2023-07-13T03:12:42;23.70;93.10
36990;DHT22;22898;52.102;5.776;2023-07-13T03:15:07;23.70;92.70
36990;DHT22;22898;52.102;5.776;2023-07-13T03:17:33;23.80;92.80
36990;DHT22;22898;52.102;5.776;2023-07-13T03:19:59;23.70;92.90
36990;DHT22;22898;52.102;5.776;2023-07-13T03:22:24;23.60;93.00
36990;DHT22;22898;52.102;5.776;2023-07-13T03:24:50;23.60;93.10
36990;DHT22;22898;52.102;5.776;2023-07-13T03:27:17;23.60;93.00
36990;DHT22;22898;52.102;5.776;2023-07-13T03:29:43;23.70;93.10
36990;DHT22;22898;52.102;5.776;2023-07-13T03:32:09;23.60;93.30
36990;DHT22;22898;52.102;5.776;2023-07-13T03:34:35;23.50;93.20
36990;DHT22;22898;52.102;5.776;2023-07-13T03:37:01;23.60;93.30
36990;DHT22;22898;52.102;5.776;2023-07-13T03:39:27;23.60;93.30
36990;DHT22;22898;52.102;5.776;2023-07-13T03:41:52;23.60;93.30
36990;DHT22;22898;52.102;5.776;2023-07-13T03:44:18;23.60;93.20
36990;DHT22;22898;52.102;5.776;2023-07-13T03:46:44;23.50;93.40
36990;DHT22;22898;52.102;5.776;2023-07-13T03:49:10;23.50;93.40
36990;DHT22;22898;52.102;5.776;2023-07-13T03:51:36;23.50;93.50
36990;DHT22;22898;52.102;5.776;2023-07-13T03:54:03;23.50;93.50
36990;DHT22;22898;52.102;5.776;2023-07-13T03:56:29;23.50;94.00
36990;DHT22;22898;52.102;5.776;2023-07-13T03:58:56;23.50;93.60
36990;DHT22;22898;52.102;5.776;2023-07-13T04:01:23;23.40;93.70
36990;DHT22;22898;52.102;5.776;2023-07-13T04:03:51;23.40;93.80
36990;DHT22;22898;52.102;5.776;2023-07-13T04:06:26;23.40;93.80
36990;DHT22;22898;52.102;5.776;2023-07-13T04:08:58;23.10;94.10
36990;DHT22;22898;52.102;5.776;2023-07-13T04:11:26;22.80;95.00
36990;DHT22;22898;52.102;5.776;2023-07-13T04:13:52;22.90;95.00
36990;DHT22;22898;52.102;5.776;2023-07-13T04:16:18;23.10;94.90
36990;DHT22;22898;52.102;5.776;2023-07-13T04:18:45;23.10;94.60
36990;DHT22;22898;52.102;5.776;2023-07-13T04:21:12;23.00;94.90
36990;DHT22;22898;52.102;5.776;2023-07-13T04:23:38;23.10;94.70
36990;DHT22;22898;52.102;5.776;2023-07-13T04:26:05;23.20;94.70
36990;DHT22;22898;52.102;5.776;2023-07-13T04:28:31;22.80;95.50
36990;DHT22;22898;52.102;5.776;2023-07-13T04:30:57;22.60;96.00
36990;DHT22;22898;52.102;5.776;2023-07-13T04:33:23;22.70;95.90
36990;DHT22;22898;52.102;5.776;2023-07-13T04:35:53;22.40;96.50
36990;DHT22;22898;52.102;5.776;2023-07-13T04:38:24;22.30;97.00
36990;DHT22;22898;52.102;5.776;2023-07-13T04:40:51;22.50;96.90
36990;DHT22;22898;52.102;5.776;2023-07-13T04:43:17;22.50;96.90
36990;DHT22;22898;52.102;5.776;2023-07-13T04:45:43;22.60;96.80
36990;DHT22;22898;52.102;5.776;2023-07-13T04:48:08;22.20;98.30
36990;DHT22;22898;52.102;5.776;2023-07-13T04:50:37;22.40;97.70
36990;DHT22;22898;52.102;5.776;2023-07-13T04:53:03;22.60;97.30
36990;DHT22;22898;52.102;5.776;2023-07-13T04:55:30;22.30;97.90
36990;DHT22;22898;52.102;5.776;2023-07-13T04:57:56;22.40;98.60
36990;DHT22;22898;52.102;5.776;2023-07-13T05:00:24;22.50;97.90
36990;DHT22;22898;52.102;5.776;2023-07-13T05:02:50;22.50;98.10
36990;DHT22;22898;52.102;5.776;2023-07-13T05:05:16;22.50;98.50
36990;DHT22;22898;52.102;5.776;2023-07-13T05:07:42;22.70;98.30
36990;DHT22;22898;52.102;5.776;2023-07-13T05:10:08;22.30;99.00
36990;DHT22;22898;52.102;5.776;2023-07-13T05:12:34;22.20;99.70
36990;DHT22;22898;52.102;5.776;2023-07-13T05:15:00;22.30;99.80
36990;DHT22;22898;52.102;5.776;2023-07-13T05:17:26;21.90;99.90
36990;DHT22;22898;52.102;5.776;2023-07-13T05:19:52;21.80;99.90
36990;DHT22;22898;52.102;5.776;2023-07-13T05:22:17;21.90;99.90
36990;DHT22;22898;52.102;5.776;2023-07-13T05:24:43;21.80;99.90
36990;DHT22;22898;52.102;5.776;2023-07-13T05:27:08;21.50;99.90
36990;DHT22;22898;52.102;5.776;2023-07-13T05:29:34;21.50;99.90
36990;DHT22;22898;52.102;5.776;2023-07-13T05:32:00;21.60;99.90
36990;DHT22;22898;52.102;5.776;2023-07-13T05:34:26;21.90;99.90
36990;DHT22;22898;52.102;5.776;2023-07-13T05:36:52;22.20;99.90
36990;DHT22;22898;52.102;5.776;2023-07-13T05:39:18;22.00;99.90
36990;DHT22;22898;52.102;5.776;2023-07-13T05:41:44;22.20;99.90
36990;DHT22;22898;52.102;5.776;2023-07-13T05:44:10;22.00;99.90
36990;DHT22;22898;52.102;5.776;2023-07-13T05:46:35;22.00;99.90
36990;DHT22;22898;52.102;5.776;2023-07-13T05:49:01;22.40;99.90
36990;DHT22;22898;52.102;5.776;2023-07-13T05:51:27;22.40;99.90
36990;DHT22;22898;52.102;5.776;2023-07-13T05:53:52;22.50;99.90
36990;DHT22;22898;52.102;5.776;2023-07-13T05:56:18;22.70;99.90
36990;DHT22;22898;52.102;5.776;2023-07-13T05:58:43;22.90;99.90
36990;DHT22;22898;52.102;5.776;2023-07-13T06:01:11;23.10;99.90
36990;DHT22;22898;52.102;5.776;2023-07-13T06:03:37;22.90;99.90
36990;DHT22;22898;52.102;5.776;2023-07-13T06:06:05;22.80;99.90
36990;DHT22;22898;52.102;5.776;2023-07-13T06:08:31;22.80;99.90
36990;DHT22;22898;52.102;5.776;2023-07-13T06:11:06;22.80;99.90
36990;DHT22;22898;52.102;5.776;2023-07-13T06:13:32;22.70;99.90
36990;DHT22;22898;52.102;5.776;2023-07-13T06:15:58;22.80;99.90
36990;DHT22;22898;52.102;5.776;2023-07-13T06:18:24;23.30;99.90
36990;DHT22;22898;52.102;5.776;2023-07-13T06:20:50;23.60;99.90
36990;DHT22;22898;52.102;5.776;2023-07-13T06:23:15;23.60;99.90
36990;DHT22;22898;52.102;5.776;2023-07-13T06:25:41;23.40;99.90
36990;DHT22;22898;52.102;5.776;2023-07-13T06:28:08;23.30;99.90
36990;DHT22;22898;52.102;5.776;2023-07-13T06:30:33;23.20;99.90
36990;DHT22;22898;52.102;5.776;2023-07-13T06:32:59;23.40;99.90
36990;DHT22;22898;52.102;5.776;2023-07-13T06:35:24;23.70;99.90
36990;DHT22;22898;52.102;5.776;2023-07-13T06:37:50;23.60;99.90
36990;DHT22;22898;52.102;5.776;2023-07-13T06:40:16;23.40;99.90
36990;DHT22;22898;52.102;5.776;2023-07-13T06:42:42;23.20;99.90
36990;DHT22;22898;52.102;5.776;2023-07-13T06:45:08;23.00;99.90
36990;DHT22;22898;52.102;5.776;2023-07-13T06:47:34;22.90;99.90
36990;DHT22;22898;52.102;5.776;2023-07-13T06:50:00;22.90;99.90
36990;DHT22;22898;52.102;5.776;2023-07-13T06:52:26;23.00;99.90
36990;DHT22;22898;52.102;5.776;2023-07-13T06:54:51;22.70;99.90
36990;DHT22;22898;52.102;5.776;2023-07-13T06:57:17;22.60;99.90
36990;DHT22;22898;52.102;5.776;2023-07-13T06:59:42;22.20;99.90
36990;DHT22;22898;52.102;5.776;2023-07-13T07:02:10;22.10;99.90
36990;DHT22;22898;52.102;5.776;2023-07-13T07:04:37;22.10;99.90
36990;DHT22;22898;52.102;5.776;2023-07-13T07:07:03;21.80;99.90
36990;DHT22;22898;52.102;5.776;2023-07-13T07:09:29;22.00;99.90
36990;DHT22;22898;52.102;5.776;2023-07-13T07:11:56;22.40;99.90
36990;DHT22;22898;52.102;5.776;2023-07-13T07:14:22;23.00;99.90
36990;DHT22;22898;52.102;5.776;2023-07-13T07:16:49;23.10;99.90
36990;DHT22;22898;52.102;5.776;2023-07-13T07:19:15;23.20;99.90
36990;DHT22;22898;52.102;5.776;2023-07-13T07:21:41;23.30;99.90
36990;DHT22;22898;52.102;5.776;2023-07-13T07:24:06;23.60;99.90
36990;DHT22;22898;52.102;5.776;2023-07-13T07:26:33;23.80;99.90
36990;DHT22;22898;52.102;5.776;2023-07-13T07:28:58;23.00;99.90
36990;DHT22;22898;52.102;5.776;2023-07-13T07:31:24;23.00;99.90
36990;DHT22;22898;52.102;5.776;2023-07-13T07:33:50;23.10;99.90
36990;DHT22;22898;52.102;5.776;2023-07-13T07:36:16;23.40;99.90
36990;DHT22;22898;52.102;5.776;2023-07-13T07:38:42;23.50;99.90
36990;DHT22;22898;52.102;5.776;2023-07-13T07:41:08;23.60;99.90
36990;DHT22;22898;52.102;5.776;2023-07-13T07:43:34;24.00;99.90
36990;DHT22;22898;52.102;5.776;2023-07-13T07:46:00;24.10;99.90
36990;DHT22;22898;52.102;5.776;2023-07-13T07:48:25;24.30;99.90
36990;DHT22;22898;52.102;5.776;2023-07-13T07:50:51;24.30;99.90
36990;DHT22;22898;52.102;5.776;2023-07-13T07:53:17;24.40;99.90
36990;DHT22;22898;52.102;5.776;2023-07-13T07:55:42;24.70;99.90
36990;DHT22;22898;52.102;5.776;2023-07-13T07:58:08;25.30;99.90
36990;DHT22;22898;52.102;5.776;2023-07-13T08:00:34;25.30;99.90
36990;DHT22;22898;52.102;5.776;2023-07-13T08:03:01;24.90;99.90
36990;DHT22;22898;52.102;5.776;2023-07-13T08:05:27;24.90;99.90
36990;DHT22;22898;52.102;5.776;2023-07-13T08:07:52;25.50;99.90
36990;DHT22;22898;52.102;5.776;2023-07-13T08:10:18;24.90;99.90
36990;DHT22;22898;52.102;5.776;2023-07-13T08:12:44;23.90;99.90
36990;DHT22;22898;52.102;5.776;2023-07-13T08:15:12;23.90;99.90
36990;DHT22;22898;52.102;5.776;2023-07-13T08:17:38;24.50;99.90
36990;DHT22;22898;52.102;5.776;2023-07-13T08:20:04;24.90;99.90
36990;DHT22;22898;52.102;5.776;2023-07-13T08:22:30;25.20;99.90
36990;DHT22;22898;52.102;5.776;2023-07-13T08:24:56;25.40;99.90
36990;DHT22;22898;52.102;5.776;2023-07-13T08:27:26;25.40;99.90
36990;DHT22;22898;52.102;5.776;2023-07-13T08:29:52;25.80;99.90
36990;DHT22;22898;52.102;5.776;2023-07-13T08:32:19;25.70;99.90
36990;DHT22;22898;52.102;5.776;2023-07-13T08:34:45;25.60;99.90
36990;DHT22;22898;52.102;5.776;2023-07-13T08:37:11;25.50;99.60
36990;DHT22;22898;52.102;5.776;2023-07-13T08:39:37;25.20;99.90
36990;DHT22;22898;52.102;5.776;2023-07-13T08:42:28;25.50;99.90
36990;DHT22;22898;52.102;5.776;2023-07-13T08:44:58;25.50;99.90
36990;DHT22;22898;52.102;5.776;2023-07-13T08:47:28;24.80;99.90
36990;DHT22;22898;52.102;5.776;2023-07-13T08:49:56;24.70;99.90
36990;DHT22;22898;52.102;5.776;2023-07-13T08:52:36;24.40;99.90
36990;DHT22;22898;52.102;5.776;2023-07-13T08:55:13;24.50;99.90
36990;DHT22;22898;52.102;5.776;2023-07-13T08:57:41;24.40;99.90
36990;DHT22;22898;52.102;5.776;2023-07-13T09:00:11;24.60;99.90
36990;DHT22;22898;52.102;5.776;2023-07-13T09:02:55;25.00;99.90
36990;DHT22;22898;52.102;5.776;2023-07-13T09:05:40;25.00;99.90
36990;DHT22;22898;52.102;5.776;2023-07-13T09:14:06;24.70;99.90
36990;DHT22;22898;52.102;5.776;2023-07-13T09:16:37;24.60;99.90
36990;DHT22;22898;52.102;5.776;2023-07-13T09:19:06;24.30;99.90
36990;DHT22;22898;52.102;5.776;2023-07-13T09:21:36;24.30;99.90
36990;DHT22;22898;52.102;5.776;2023-07-13T09:24:37;23.70;99.90
36990;DHT22;22898;52.102;5.776;2023-07-13T09:27:31;23.10;99.90
36990;DHT22;22898;52.102;5.776;2023-07-13T09:32:41;24.00;98.60
36990;DHT22;22898;52.102;5.776;2023-07-13T09:35:14;24.20;97.40
36990;DHT22;22898;52.102;5.776;2023-07-13T09:37:43;24.60;97.40
36990;DHT22;22898;52.102;5.776;2023-07-13T09:40:38;24.60;97.40
36990;DHT22;22898;52.102;5.776;2023-07-13T09:43:08;24.20;97.00
36990;DHT22;22898;52.102;5.776;2023-07-13T09:45:36;24.10;97.30
36990;DHT22;22898;52.102;5.776;2023-07-13T09:48:14;23.80;97.90
36990;DHT22;22898;52.102;5.776;2023-07-13T09:50:41;23.80;98.30
36990;DHT22;22898;52.102;5.776;2023-07-13T09:53:18;24.30;97.40
36990;DHT22;22898;52.102;5.776;2023-07-13T09:55:48;24.10;97.50
36990;DHT22;22898;52.102;5.776;2023-07-13T09:58:17;24.00;97.20
36990;DHT22;22898;52.102;5.776;2023-07-13T10:00:53;24.40;96.90
36990;DHT22;22898;52.102;5.776;2023-07-13T10:03:21;24.40;96.50
36990;DHT22;22898;52.102;5.776;2023-07-13T10:05:49;24.60;95.90
36990;DHT22;22898;52.102;5.776;2023-07-13T10:08:21;24.70;96.20
36990;DHT22;22898;52.102;5.776;2023-07-13T10:10:53;24.40;96.40
36990;DHT22;22898;52.102;5.776;2023-07-13T10:15:57;24.30;98.10
36990;DHT22;22898;52.102;5.776;2023-07-13T10:18:24;25.30;97.80
36990;DHT22;22898;52.102;5.776;2023-07-13T10:21:15;25.40;95.50
36990;DHT22;22898;52.102;5.776;2023-07-13T10:23:42;24.90;96.50
36990;DHT22;22898;52.102;5.776;2023-07-13T10:26:19;25.00;97.50
36990;DHT22;22898;52.102;5.776;2023-07-13T10:28:51;25.20;99.60
36990;DHT22;22898;52.102;5.776;2023-07-13T10:31:19;24.30;99.90
36990;DHT22;22898;52.102;5.776;2023-07-13T10:33:46;23.20;99.90
36990;DHT22;22898;52.102;5.776;2023-07-13T10:36:31;23.10;99.90
36990;DHT22;22898;52.102;5.776;2023-07-13T10:39:01;23.40;99.90
36990;DHT22;22898;52.102;5.776;2023-07-13T10:41:29;23.70;99.90
36990;DHT22;22898;52.102;5.776;2023-07-13T10:43:56;24.30;99.90
36990;DHT22;22898;52.102;5.776;2023-07-13T10:46:24;24.70;99.90
36990;DHT22;22898;52.102;5.776;2023-07-13T10:48:58;25.00;99.90
36990;DHT22;22898;52.102;5.776;2023-07-13T10:51:25;25.10;99.90
36990;DHT22;22898;52.102;5.776;2023-07-13T10:54:11;25.10;99.90
36990;DHT22;22898;52.102;5.776;2023-07-13T10:56:39;25.20;99.90
36990;DHT22;22898;52.102;5.776;2023-07-13T10:59:18;25.30;99.90
36990;DHT22;22898;52.102;5.776;2023-07-13T11:01:58;25.30;99.90
36990;DHT22;22898;52.102;5.776;2023-07-13T11:04:26;25.20;99.90
36990;DHT22;22898;52.102;5.776;2023-07-13T11:07:16;25.40;99.90
36990;DHT22;22898;52.102;5.776;2023-07-13T11:09:43;25.60;99.90
36990;DHT22;22898;52.102;5.776;2023-07-13T11:15:05;26.30;99.90
36990;DHT22;22898;52.102;5.776;2023-07-13T11:17:37;26.40;99.90
36990;DHT22;22898;52.102;5.776;2023-07-13T11:22:50;23.90;99.90
36990;DHT22;22898;52.102;5.776;2023-07-13T11:27:50;24.10;99.90
36990;DHT22;22898;52.102;5.776;2023-07-13T11:30:31;24.30;99.90
36990;DHT22;22898;52.102;5.776;2023-07-13T11:36:04;24.60;99.90
36990;DHT22;22898;52.102;5.776;2023-07-13T11:38:38;24.90;99.90
36990;DHT22;22898;52.102;5.776;2023-07-13T11:41:10;25.30;99.90
36990;DHT22;22898;52.102;5.776;2023-07-13T11:43:41;25.40;99.90
36990;DHT22;22898;52.102;5.776;2023-07-13T11:46:21;25.80;99.90
36990;DHT22;22898;52.102;5.776;2023-07-13T11:48:48;25.70;99.90
36990;DHT22;22898;52.102;5.776;2023-07-13T11:51:29;25.20;99.90
36990;DHT22;22898;52.102;5.776;2023-07-13T11:54:23;25.00;99.90
36990;DHT22;22898;52.102;5.776;2023-07-13T11:56:48;25.10;99.90
36990;DHT22;22898;52.102;5.776;2023-07-13T11:59:15;25.40;99.90
36990;DHT22;22898;52.102;5.776;2023-07-13T12:01:51;25.30;99.90
36990;DHT22;22898;52.102;5.776;2023-07-13T12:04:30;25.20;99.90
36990;DHT22;22898;52.102;5.776;2023-07-13T12:07:17;25.40;99.90
36990;DHT22;22898;52.102;5.776;2023-07-13T12:09:43;25.50;99.90
36990;DHT22;22898;52.102;5.776;2023-07-13T12:12:18;25.60;99.90
36990;DHT22;22898;52.102;5.776;2023-07-13T12:14:45;25.60;98.90
36990;DHT22;22898;52.102;5.776;2023-07-13T12:17:22;25.50;99.80
36990;DHT22;22898;52.102;5.776;2023-07-13T12:19:50;24.10;99.90
36990;DHT22;22898;52.102;5.776;2023-07-13T12:22:17;22.40;99.90
36990;DHT22;22898;52.102;5.776;2023-07-13T12:24:44;22.10;99.90
36990;DHT22;22898;52.102;5.776;2023-07-13T12:27:20;22.00;99.90
36990;DHT22;22898;52.102;5.776;2023-07-13T12:30:01;22.50;99.90
36990;DHT22;22898;52.102;5.776;2023-07-13T12:32:27;23.20;99.90
36990;DHT22;22898;52.102;5.776;2023-07-13T12:34:56;23.70;99.90
36990;DHT22;22898;52.102;5.776;2023-07-13T12:37:23;23.90;99.90
36990;DHT22;22898;52.102;5.776;2023-07-13T12:39:50;24.10;99.90
36990;DHT22;22898;52.102;5.776;2023-07-13T12:42:28;24.30;99.90
36990;DHT22;22898;52.102;5.776;2023-07-13T12:45:25;24.80;99.90
36990;DHT22;22898;52.102;5.776;2023-07-13T12:47:55;25.20;99.90
36990;DHT22;22898;52.102;5.776;2023-07-13T12:50:29;25.50;99.90
36990;DHT22;22898;52.102;5.776;2023-07-13T12:53:01;25.90;99.90
36990;DHT22;22898;52.102;5.776;2023-07-13T12:55:29;26.20;99.90
36990;DHT22;22898;52.102;5.776;2023-07-13T12:57:59;26.30;99.90
36990;DHT22;22898;52.102;5.776;2023-07-13T13:00:33;26.60;99.90
36990;DHT22;22898;52.102;5.776;2023-07-13T13:05:38;27.10;99.90
36990;DHT22;22898;52.102;5.776;2023-07-13T13:08:04;27.00;99.90
36990;DHT22;22898;52.102;5.776;2023-07-13T13:10:29;27.00;99.90
36990;DHT22;22898;52.102;5.776;2023-07-13T13:12:55;26.90;99.90
36990;DHT22;22898;52.102;5.776;2023-07-13T13:15:21;26.50;99.90
36990;DHT22;22898;52.102;5.776;2023-07-13T13:17:47;25.90;99.90
36990;DHT22;22898;52.102;5.776;2023-07-13T13:20:15;25.80;99.90
36990;DHT22;22898;52.102;5.776;2023-07-13T13:22:42;26.00;99.90
36990;DHT22;22898;52.102;5.776;2023-07-13T13:25:10;25.80;99.90
36990;DHT22;22898;52.102;5.776;2023-07-13T13:27:37;25.90;99.90
36990;DHT22;22898;52.102;5.776;2023-07-13T13:30:03;26.30;99.90
36990;DHT22;22898;52.102;5.776;2023-07-13T13:32:28;26.60;99.90
36990;DHT22;22898;52.102;5.776;2023-07-13T13:34:54;27.10;99.90
36990;DHT22;22898;52.102;5.776;2023-07-13T13:37:23;27.30;98.10
36990;DHT22;22898;52.102;5.776;2023-07-13T13:39:51;27.20;99.20
36990;DHT22;22898;52.102;5.776;2023-07-13T13:42:19;27.00;97.70
36990;DHT22;22898;52.102;5.776;2023-07-13T13:44:46;26.70;98.70
36990;DHT22;22898;52.102;5.776;2023-07-13T13:47:31;26.30;98.30
36990;DHT22;22898;52.102;5.776;2023-07-13T13:49:58;25.60;99.50
36990;DHT22;22898;52.102;5.776;2023-07-13T13:52:24;25.80;99.10
36990;DHT22;22898;52.102;5.776;2023-07-13T13:54:51;26.20;98.10
36990;DHT22;22898;52.102;5.776;2023-07-13T13:57:22;26.60;98.00
36990;DHT22;22898;52.102;5.776;2023-07-13T13:59:48;27.10;96.90
36990;DHT22;22898;52.102;5.776;2023-07-13T14:02:24;27.20;95.20
36990;DHT22;22898;52.102;5.776;2023-07-13T14:04:58;27.20;95.10
36990;DHT22;22898;52.102;5.776;2023-07-13T14:07:25;27.00;95.20
36990;DHT22;22898;52.102;5.776;2023-07-13T14:09:52;27.00;94.40
36990;DHT22;22898;52.102;5.776;2023-07-13T14:12:18;27.10;94.70
36990;DHT22;22898;52.102;5.776;2023-07-13T14:14:44;27.20;94.90
36990;DHT22;22898;52.102;5.776;2023-07-13T14:17:24;27.50;93.50
36990;DHT22;22898;52.102;5.776;2023-07-13T14:19:51;27.70;92.80
36990;DHT22;22898;52.102;5.776;2023-07-13T14:22:26;27.40;93.40
36990;DHT22;22898;52.102;5.776;2023-07-13T14:24:55;26.90;93.30
36990;DHT22;22898;52.102;5.776;2023-07-13T14:27:22;26.60;94.30
36990;DHT22;22898;52.102;5.776;2023-07-13T14:29:49;26.60;92.70
36990;DHT22;22898;52.102;5.776;2023-07-13T14:32:15;26.40;93.80
36990;DHT22;22898;52.102;5.776;2023-07-13T14:34:41;26.30;93.40
36990;DHT22;22898;52.102;5.776;2023-07-13T14:37:13;26.70;92.80
36990;DHT22;22898;52.102;5.776;2023-07-13T14:39:41;26.90;92.90
36990;DHT22;22898;52.102;5.776;2023-07-13T14:42:09;27.00;92.80
36990;DHT22;22898;52.102;5.776;2023-07-13T14:44:35;26.80;93.20
36990;DHT22;22898;52.102;5.776;2023-07-13T14:47:03;26.70;92.80
36990;DHT22;22898;52.102;5.776;2023-07-13T14:49:32;26.90;92.00
36990;DHT22;22898;52.102;5.776;2023-07-13T14:52:13;27.20;91.70
36990;DHT22;22898;52.102;5.776;2023-07-13T14:54:40;27.80;90.90
36990;DHT22;22898;52.102;5.776;2023-07-13T14:57:16;28.60;90.70
36990;DHT22;22898;52.102;5.776;2023-07-13T14:59:42;28.70;90.20
36990;DHT22;22898;52.102;5.776;2023-07-13T15:02:30;28.50;90.30
36990;DHT22;22898;52.102;5.776;2023-07-13T15:04:57;28.00;88.60
36990;DHT22;22898;52.102;5.776;2023-07-13T15:07:23;27.40;90.30
36990;DHT22;22898;52.102;5.776;2023-07-13T15:09:50;27.30;90.20
36990;DHT22;22898;52.102;5.776;2023-07-13T15:12:16;27.30;90.90
36990;DHT22;22898;52.102;5.776;2023-07-13T15:14:42;27.40;91.30
36990;DHT22;22898;52.102;5.776;2023-07-13T15:19:55;27.90;90.80
36990;DHT22;22898;52.102;5.776;2023-07-13T15:22:21;27.80;90.20
36990;DHT22;22898;52.102;5.776;2023-07-13T15:24:47;27.40;90.30
36990;DHT22;22898;52.102;5.776;2023-07-13T15:27:13;27.20;90.70
36990;DHT22;22898;52.102;5.776;2023-07-13T15:29:38;27.40;90.80
36990;DHT22;22898;52.102;5.776;2023-07-13T15:32:13;27.70;90.40
36990;DHT22;22898;52.102;5.776;2023-07-13T15:34:39;27.90;89.00
36990;DHT22;22898;52.102;5.776;2023-07-13T15:37:17;27.80;90.10
36990;DHT22;22898;52.102;5.776;2023-07-13T15:39:43;27.60;89.80
36990;DHT22;22898;52.102;5.776;2023-07-13T15:42:19;27.40;90.30
36990;DHT22;22898;52.102;5.776;2023-07-13T15:44:45;27.50;90.70
36990;DHT22;22898;52.102;5.776;2023-07-13T15:47:13;28.00;90.10
36990;DHT22;22898;52.102;5.776;2023-07-13T15:49:40;28.10;89.70
36990;DHT22;22898;52.102;5.776;2023-07-13T15:52:25;28.20;88.40
36990;DHT22;22898;52.102;5.776;2023-07-13T15:54:50;28.60;87.90
36990;DHT22;22898;52.102;5.776;2023-07-13T15:57:16;28.10;87.70
36990;DHT22;22898;52.102;5.776;2023-07-13T15:59:43;27.50;89.10
36990;DHT22;22898;52.102;5.776;2023-07-13T16:02:16;27.50;89.10
36990;DHT22;22898;52.102;5.776;2023-07-13T16:04:43;27.50;89.70
36990;DHT22;22898;52.102;5.776;2023-07-13T16:07:14;27.80;88.20